sensor_id;sensor_type;location;lat;lon;timestamp;P1;durP1;ratioP1;P2;durP2;ratioP2
7239;SDS011;3661;53.288;10.458;2024-03-08T00:01:46;525.13;;;504.15;;
7239;SDS011;3661;53.288;10.458;2024-03-08T00:04:18;531.33;;;509.50;;
7239;SDS011;3661;53.288;10.458;2024-03-08T00:06:50;519.90;;;499.10;;
7239;SDS011;3661;53.288;10.458;2024-03-08T00:09:22;519.17;;;498.25;;
7239;SDS011;3661;53.288;10.458;2024-03-08T00:11:54;523.67;;;502.47;;
7239;SDS011;3661;53.288;10.458;2024-03-08T00:14:28;512.25;;;491.02;;
7239;SDS011;3661;53.288;10.458;2024-03-08T00:17:00;501.00;;;481.00;;
7239;SDS011;3661;53.288;10.458;2024-03-08T00:19:33;517.97;;;496.83;;
7239;SDS011;3661;53.288;10.458;2024-03-08T00:22:05;535.53;;;513.25;;
7239;SDS011;3661;53.288;10.458;2024-03-08T00:24:38;541.42;;;518.83;;
7239;SDS011;3661;53.288;10.458;2024-03-08T00:27:10;506.97;;;486.07;;
7239;SDS011;3661;53.288;10.458;2024-03-08T00:29:44;526.58;;;504.75;;
7239;SDS011;3661;53.288;10.458;2024-03-08T00:32:17;489.17;;;469.13;;
7239;SDS011;3661;53.288;10.458;2024-03-08T00:34:49;525.80;;;504.60;;
7239;SDS011;3661;53.288;10.458;2024-03-08T00:37:22;535.17;;;513.30;;
7239;SDS011;3661;53.288;10.458;2024-03-08T00:39:54;532.40;;;511.23;;
7239;SDS011;3661;53.288;10.458;2024-03-08T00:42:26;529.47;;;508.23;;
7239;SDS011;3661;53.288;10.458;2024-03-08T00:45:00;497.23;;;477.08;;
7239;SDS011;3661;53.288;10.458;2024-03-08T00:47:33;505.13;;;484.48;;
7239;SDS011;3661;53.288;10.458;2024-03-08T00:50:05;512.83;;;492.17;;
7239;SDS011;3661;53.288;10.458;2024-03-08T00:52:38;490.33;;;470.93;;
7239;SDS011;3661;53.288;10.458;2024-03-08T00:55:11;497.38;;;477.38;;
7239;SDS011;3661;53.288;10.458;2024-03-08T00:57:43;495.10;;;475.27;;
7239;SDS011;3661;53.288;10.458;2024-03-08T01:00:17;467.13;;;448.10;;
7239;SDS011;3661;53.288;10.458;2024-03-08T01:02:51;480.88;;;461.77;;
7239;SDS011;3661;53.288;10.458;2024-03-08T01:05:23;480.92;;;461.27;;
7239;SDS011;3661;53.288;10.458;2024-03-08T01:07:55;456.33;;;438.47;;
7239;SDS011;3661;53.288;10.458;2024-03-08T01:10:28;474.40;;;455.85;;
7239;SDS011;3661;53.288;10.458;2024-03-08T01:13:03;515.30;;;494.55;;
7239;SDS011;3661;53.288;10.458;2024-03-08T01:15:37;521.00;;;499.90;;
7239;SDS011;3661;53.288;10.458;2024-03-08T01:18:11;445.88;;;427.98;;
7239;SDS011;3661;53.288;10.458;2024-03-08T01:20:43;508.42;;;488.45;;
7239;SDS011;3661;53.288;10.458;2024-03-08T01:23:16;509.38;;;488.30;;
7239;SDS011;3661;53.288;10.458;2024-03-08T01:25:48;474.60;;;456.00;;
7239;SDS011;3661;53.288;10.458;2024-03-08T01:28:26;476.50;;;457.52;;
7239;SDS011;3661;53.288;10.458;2024-03-08T01:31:00;482.90;;;463.38;;
7239;SDS011;3661;53.288;10.458;2024-03-08T01:33:34;461.00;;;443.00;;
7239;SDS011;3661;53.288;10.458;2024-03-08T01:36:06;456.98;;;438.48;;
7239;SDS011;3661;53.288;10.458;2024-03-08T01:38:38;474.80;;;455.48;;
7239;SDS011;3661;53.288;10.458;2024-03-08T01:41:10;492.60;;;472.73;;
7239;SDS011;3661;53.288;10.458;2024-03-08T01:43:44;446.05;;;428.40;;
7239;SDS011;3661;53.288;10.458;2024-03-08T01:46:19;454.08;;;435.88;;
7239;SDS011;3661;53.288;10.458;2024-03-08T01:48:52;466.38;;;447.42;;
7239;SDS011;3661;53.288;10.458;2024-03-08T01:51:24;461.77;;;443.20;;
7239;SDS011;3661;53.288;10.458;2024-03-08T01:53:58;458.80;;;440.33;;
7239;SDS011;3661;53.288;10.458;2024-03-08T01:56:34;457.83;;;439.25;;
7239;SDS011;3661;53.288;10.458;2024-03-08T01:59:06;464.20;;;445.80;;
7239;SDS011;3661;53.288;10.458;2024-03-08T02:01:41;469.90;;;450.52;;
7239;SDS011;3661;53.288;10.458;2024-03-08T02:04:13;487.20;;;467.27;;
7239;SDS011;3661;53.288;10.458;2024-03-08T02:06:46;483.85;;;463.60;;
7239;SDS011;3661;53.288;10.458;2024-03-08T02:09:19;477.98;;;457.85;;
7239;SDS011;3661;53.288;10.458;2024-03-08T02:11:51;492.27;;;471.92;;
7239;SDS011;3661;53.288;10.458;2024-03-08T02:14:24;502.35;;;481.23;;
7239;SDS011;3661;53.288;10.458;2024-03-08T02:17:01;467.08;;;447.98;;
7239;SDS011;3661;53.288;10.458;2024-03-08T02:19:34;479.67;;;460.63;;
7239;SDS011;3661;53.288;10.458;2024-03-08T02:22:08;490.08;;;469.55;;
7239;SDS011;3661;53.288;10.458;2024-03-08T02:24:40;470.10;;;451.10;;
7239;SDS011;3661;53.288;10.458;2024-03-08T02:27:13;484.58;;;464.70;;
7239;SDS011;3661;53.288;10.458;2024-03-08T02:29:47;492.92;;;472.40;;
7239;SDS011;3661;53.288;10.458;2024-03-08T02:32:19;463.55;;;444.25;;
7239;SDS011;3661;53.288;10.458;2024-03-08T02:34:51;472.25;;;452.50;;
7239;SDS011;3661;53.288;10.458;2024-03-08T02:37:31;461.33;;;442.37;;
7239;SDS011;3661;53.288;10.458;2024-03-08T02:40:03;440.35;;;421.55;;
7239;SDS011;3661;53.288;10.458;2024-03-08T02:42:36;463.85;;;444.65;;
7239;SDS011;3661;53.288;10.458;2024-03-08T02:45:08;465.88;;;445.80;;
7239;SDS011;3661;53.288;10.458;2024-03-08T02:47:41;476.25;;;456.05;;
7239;SDS011;3661;53.288;10.458;2024-03-08T02:50:13;485.48;;;464.67;;
7239;SDS011;3661;53.288;10.458;2024-03-08T02:52:50;470.73;;;450.60;;
7239;SDS011;3661;53.288;10.458;2024-03-08T02:55:22;480.20;;;460.25;;
7239;SDS011;3661;53.288;10.458;2024-03-08T02:57:56;466.23;;;446.98;;
7239;SDS011;3661;53.288;10.458;2024-03-08T03:00:29;441.00;;;422.27;;
7239;SDS011;3661;53.288;10.458;2024-03-08T03:03:02;441.83;;;423.58;;
7239;SDS011;3661;53.288;10.458;2024-03-08T03:05:35;428.30;;;410.92;;
7239;SDS011;3661;53.288;10.458;2024-03-08T03:08:09;445.60;;;427.10;;
7239;SDS011;3661;53.288;10.458;2024-03-08T03:10:42;429.30;;;411.52;;
7239;SDS011;3661;53.288;10.458;2024-03-08T03:13:14;445.77;;;427.30;;
7239;SDS011;3661;53.288;10.458;2024-03-08T03:15:49;464.03;;;445.03;;
7239;SDS011;3661;53.288;10.458;2024-03-08T03:18:21;470.80;;;451.13;;
7239;SDS011;3661;53.288;10.458;2024-03-08T03:20:54;481.85;;;460.80;;
7239;SDS011;3661;53.288;10.458;2024-03-08T03:23:27;461.33;;;441.70;;
7239;SDS011;3661;53.288;10.458;2024-03-08T03:26:03;473.83;;;453.42;;
7239;SDS011;3661;53.288;10.458;2024-03-08T03:28:37;446.33;;;427.50;;
7239;SDS011;3661;53.288;10.458;2024-03-08T03:31:10;445.83;;;426.83;;
7239;SDS011;3661;53.288;10.458;2024-03-08T03:33:44;445.17;;;426.27;;
7239;SDS011;3661;53.288;10.458;2024-03-08T03:36:17;458.80;;;439.80;;
7239;SDS011;3661;53.288;10.458;2024-03-08T03:38:50;444.95;;;426.33;;
7239;SDS011;3661;53.288;10.458;2024-03-08T03:41:34;457.23;;;438.20;;
7239;SDS011;3661;53.288;10.458;2024-03-08T03:44:06;424.80;;;407.17;;
7239;SDS011;3661;53.288;10.458;2024-03-08T03:46:41;472.20;;;452.08;;
7239;SDS011;3661;53.288;10.458;2024-03-08T03:49:15;457.03;;;437.77;;
7239;SDS011;3661;53.288;10.458;2024-03-08T03:51:47;452.25;;;432.38;;
7239;SDS011;3661;53.288;10.458;2024-03-08T03:54:20;452.80;;;433.50;;
7239;SDS011;3661;53.288;10.458;2024-03-08T03:56:52;406.70;;;389.50;;
7239;SDS011;3661;53.288;10.458;2024-03-08T03:59:25;433.38;;;415.08;;
7239;SDS011;3661;53.288;10.458;2024-03-08T04:01:58;459.58;;;439.83;;
7239;SDS011;3661;53.288;10.458;2024-03-08T04:04:30;448.93;;;430.17;;
7239;SDS011;3661;53.288;10.458;2024-03-08T04:07:02;433.42;;;415.35;;
7239;SDS011;3661;53.288;10.458;2024-03-08T04:09:36;417.80;;;400.67;;
7239;SDS011;3661;53.288;10.458;2024-03-08T04:12:09;456.90;;;437.38;;
7239;SDS011;3661;53.288;10.458;2024-03-08T04:14:41;415.58;;;398.45;;
7239;SDS011;3661;53.288;10.458;2024-03-08T04:17:14;420.73;;;402.80;;
7239;SDS011;3661;53.288;10.458;2024-03-08T04:19:46;444.97;;;425.77;;
7239;SDS011;3661;53.288;10.458;2024-03-08T04:22:19;437.58;;;419.52;;
7239;SDS011;3661;53.288;10.458;2024-03-08T04:24:54;399.13;;;382.95;;
7239;SDS011;3661;53.288;10.458;2024-03-08T04:27:26;410.25;;;392.83;;
7239;SDS011;3661;53.288;10.458;2024-03-08T04:29:59;428.37;;;410.50;;
7239;SDS011;3661;53.288;10.458;2024-03-08T04:32:31;433.92;;;415.60;;
7239;SDS011;3661;53.288;10.458;2024-03-08T04:35:03;434.67;;;416.88;;
7239;SDS011;3661;53.288;10.458;2024-03-08T04:37:36;436.65;;;418.65;;
7239;SDS011;3661;53.288;10.458;2024-03-08T04:40:09;431.70;;;413.98;;
7239;SDS011;3661;53.288;10.458;2024-03-08T04:42:42;409.27;;;392.27;;
7239;SDS011;3661;53.288;10.458;2024-03-08T04:45:15;430.75;;;412.77;;
7239;SDS011;3661;53.288;10.458;2024-03-08T04:47:47;423.92;;;406.10;;
7239;SDS011;3661;53.288;10.458;2024-03-08T04:50:19;439.13;;;420.52;;
7239;SDS011;3661;53.288;10.458;2024-03-08T04:52:51;426.45;;;408.95;;
7239;SDS011;3661;53.288;10.458;2024-03-08T04:55:25;406.00;;;389.60;;
7239;SDS011;3661;53.288;10.458;2024-03-08T04:57:57;368.23;;;353.23;;
7239;SDS011;3661;53.288;10.458;2024-03-08T05:00:29;391.52;;;375.70;;
7239;SDS011;3661;53.288;10.458;2024-03-08T05:03:01;402.05;;;385.17;;
7239;SDS011;3661;53.288;10.458;2024-03-08T05:05:34;419.65;;;402.00;;
7239;SDS011;3661;53.288;10.458;2024-03-08T05:08:07;402.50;;;385.77;;
7239;SDS011;3661;53.288;10.458;2024-03-08T05:10:40;396.08;;;379.65;;
7239;SDS011;3661;53.288;10.458;2024-03-08T05:13:12;431.65;;;413.85;;
7239;SDS011;3661;53.288;10.458;2024-03-08T05:15:47;400.08;;;383.92;;
7239;SDS011;3661;53.288;10.458;2024-03-08T05:18:20;410.60;;;393.48;;
7239;SDS011;3661;53.288;10.458;2024-03-08T05:20:52;402.77;;;386.20;;
7239;SDS011;3661;53.288;10.458;2024-03-08T05:23:24;435.90;;;417.45;;
7239;SDS011;3661;53.288;10.458;2024-03-08T05:25:58;433.65;;;415.58;;
7239;SDS011;3661;53.288;10.458;2024-03-08T05:28:31;436.25;;;417.85;;
7239;SDS011;3661;53.288;10.458;2024-03-08T05:31:03;413.80;;;396.40;;
7239;SDS011;3661;53.288;10.458;2024-03-08T05:33:35;424.67;;;406.80;;
7239;SDS011;3661;53.288;10.458;2024-03-08T05:36:07;420.45;;;402.90;;
7239;SDS011;3661;53.288;10.458;2024-03-08T05:38:41;419.90;;;402.27;;
7239;SDS011;3661;53.288;10.458;2024-03-08T05:41:15;448.98;;;429.05;;
7239;SDS011;3661;53.288;10.458;2024-03-08T05:43:47;428.05;;;409.70;;
7239;SDS011;3661;53.288;10.458;2024-03-08T05:46:19;423.73;;;405.42;;
7239;SDS011;3661;53.288;10.458;2024-03-08T05:48:52;419.33;;;401.15;;
7239;SDS011;3661;53.288;10.458;2024-03-08T05:51:24;406.90;;;389.73;;
7239;SDS011;3661;53.288;10.458;2024-03-08T05:53:57;404.13;;;387.13;;
7239;SDS011;3661;53.288;10.458;2024-03-08T05:56:31;424.05;;;405.67;;
7239;SDS011;3661;53.288;10.458;2024-03-08T05:59:03;398.53;;;381.83;;
7239;SDS011;3661;53.288;10.458;2024-03-08T06:01:35;421.65;;;404.23;;
7239;SDS011;3661;53.288;10.458;2024-03-08T06:04:08;420.50;;;402.38;;
7239;SDS011;3661;53.288;10.458;2024-03-08T06:06:41;428.88;;;410.63;;
7239;SDS011;3661;53.288;10.458;2024-03-08T06:09:13;415.63;;;398.55;;
7239;SDS011;3661;53.288;10.458;2024-03-08T06:11:54;410.98;;;393.58;;
7239;SDS011;3661;53.288;10.458;2024-03-08T06:14:29;420.17;;;402.15;;
7239;SDS011;3661;53.288;10.458;2024-03-08T06:17:01;404.90;;;387.27;;
7239;SDS011;3661;53.288;10.458;2024-03-08T06:19:36;396.80;;;379.70;;
7239;SDS011;3661;53.288;10.458;2024-03-08T06:22:08;403.35;;;386.33;;
7239;SDS011;3661;53.288;10.458;2024-03-08T06:24:40;408.23;;;390.75;;
7239;SDS011;3661;53.288;10.458;2024-03-08T06:27:14;381.38;;;365.17;;
7239;SDS011;3661;53.288;10.458;2024-03-08T06:29:47;407.73;;;390.15;;
7239;SDS011;3661;53.288;10.458;2024-03-08T06:32:20;393.10;;;376.60;;
7239;SDS011;3661;53.288;10.458;2024-03-08T06:34:55;430.03;;;411.77;;
7239;SDS011;3661;53.288;10.458;2024-03-08T06:37:27;412.60;;;394.98;;
7239;SDS011;3661;53.288;10.458;2024-03-08T06:40:01;419.17;;;401.10;;
7239;SDS011;3661;53.288;10.458;2024-03-08T06:42:43;423.67;;;405.95;;
7239;SDS011;3661;53.288;10.458;2024-03-08T06:45:15;420.00;;;402.65;;
7239;SDS011;3661;53.288;10.458;2024-03-08T06:47:51;439.20;;;420.83;;
7239;SDS011;3661;53.288;10.458;2024-03-08T06:50:25;400.70;;;384.27;;
7239;SDS011;3661;53.288;10.458;2024-03-08T06:52:57;420.63;;;403.00;;
7239;SDS011;3661;53.288;10.458;2024-03-08T06:55:29;410.95;;;394.05;;
7239;SDS011;3661;53.288;10.458;2024-03-08T06:58:03;418.57;;;401.53;;
7239;SDS011;3661;53.288;10.458;2024-03-08T07:00:37;428.55;;;410.45;;
7239;SDS011;3661;53.288;10.458;2024-03-08T07:03:09;447.20;;;428.00;;
7239;SDS011;3661;53.288;10.458;2024-03-08T07:05:47;402.38;;;386.02;;
7239;SDS011;3661;53.288;10.458;2024-03-08T07:08:19;412.67;;;395.75;;
7239;SDS011;3661;53.288;10.458;2024-03-08T07:10:53;403.45;;;386.98;;
7239;SDS011;3661;53.288;10.458;2024-03-08T07:13:27;406.97;;;390.50;;
7239;SDS011;3661;53.288;10.458;2024-03-08T07:15:59;452.63;;;433.92;;
7239;SDS011;3661;53.288;10.458;2024-03-08T07:18:32;429.75;;;412.00;;
7239;SDS011;3661;53.288;10.458;2024-03-08T07:21:06;438.88;;;420.30;;
7239;SDS011;3661;53.288;10.458;2024-03-08T07:23:38;410.98;;;394.02;;
7239;SDS011;3661;53.288;10.458;2024-03-08T07:26:48;422.42;;;405.08;;
7239;SDS011;3661;53.288;10.458;2024-03-08T07:29:23;408.42;;;392.17;;
7239;SDS011;3661;53.288;10.458;2024-03-08T07:31:55;422.52;;;405.27;;
7239;SDS011;3661;53.288;10.458;2024-03-08T07:34:41;416.52;;;399.77;;
7239;SDS011;3661;53.288;10.458;2024-03-08T07:37:13;419.35;;;402.35;;
7239;SDS011;3661;53.288;10.458;2024-03-08T07:39:45;431.85;;;414.17;;
7239;SDS011;3661;53.288;10.458;2024-03-08T07:42:17;423.83;;;406.95;;
7239;SDS011;3661;53.288;10.458;2024-03-08T07:44:54;459.45;;;440.80;;
7239;SDS011;3661;53.288;10.458;2024-03-08T07:47:26;473.48;;;453.27;;
7239;SDS011;3661;53.288;10.458;2024-03-08T07:50:00;436.52;;;419.08;;
7239;SDS011;3661;53.288;10.458;2024-03-08T07:52:33;459.92;;;441.08;;
7239;SDS011;3661;53.288;10.458;2024-03-08T07:55:06;483.85;;;463.30;;
7239;SDS011;3661;53.288;10.458;2024-03-08T07:57:41;471.25;;;451.30;;
7239;SDS011;3661;53.288;10.458;2024-03-08T08:00:15;471.17;;;451.33;;
7239;SDS011;3661;53.288;10.458;2024-03-08T08:02:48;513.85;;;491.30;;
7239;SDS011;3661;53.288;10.458;2024-03-08T08:05:21;479.30;;;458.83;;
7239;SDS011;3661;53.288;10.458;2024-03-08T08:07:53;514.55;;;492.73;;
7239;SDS011;3661;53.288;10.458;2024-03-08T08:10:26;498.08;;;477.23;;
7239;SDS011;3661;53.288;10.458;2024-03-08T08:12:58;496.95;;;476.05;;
7239;SDS011;3661;53.288;10.458;2024-03-08T08:15:32;473.58;;;453.88;;
7239;SDS011;3661;53.288;10.458;2024-03-08T08:18:05;482.08;;;462.52;;
7239;SDS011;3661;53.288;10.458;2024-03-08T08:20:39;485.75;;;465.67;;
7239;SDS011;3661;53.288;10.458;2024-03-08T08:23:11;482.42;;;462.75;;
7239;SDS011;3661;53.288;10.458;2024-03-08T08:25:44;502.35;;;482.40;;
7239;SDS011;3661;53.288;10.458;2024-03-08T08:28:16;498.53;;;477.93;;
7239;SDS011;3661;53.288;10.458;2024-03-08T08:30:52;499.67;;;478.87;;
7239;SDS011;3661;53.288;10.458;2024-03-08T08:33:24;520.80;;;499.67;;
7239;SDS011;3661;53.288;10.458;2024-03-08T08:35:57;538.30;;;516.42;;
7239;SDS011;3661;53.288;10.458;2024-03-08T08:38:29;489.77;;;470.05;;
7239;SDS011;3661;53.288;10.458;2024-03-08T08:41:01;513.95;;;493.90;;
7239;SDS011;3661;53.288;10.458;2024-03-08T08:43:33;555.85;;;533.25;;
7239;SDS011;3661;53.288;10.458;2024-03-08T08:46:07;524.90;;;504.20;;
7239;SDS011;3661;53.288;10.458;2024-03-08T08:48:39;531.50;;;510.48;;
7239;SDS011;3661;53.288;10.458;2024-03-08T08:51:11;568.45;;;545.80;;
7239;SDS011;3661;53.288;10.458;2024-03-08T08:53:43;583.13;;;559.20;;
7239;SDS011;3661;53.288;10.458;2024-03-08T08:56:17;586.83;;;562.90;;
7239;SDS011;3661;53.288;10.458;2024-03-08T08:58:49;583.83;;;560.60;;
7239;SDS011;3661;53.288;10.458;2024-03-08T09:01:23;579.40;;;556.30;;
7239;SDS011;3661;53.288;10.458;2024-03-08T09:03:56;554.85;;;533.40;;
7239;SDS011;3661;53.288;10.458;2024-03-08T09:06:28;588.13;;;565.15;;
7239;SDS011;3661;53.288;10.458;2024-03-08T09:09:00;576.35;;;553.30;;
7239;SDS011;3661;53.288;10.458;2024-03-08T09:11:34;602.25;;;578.00;;
7239;SDS011;3661;53.288;10.458;2024-03-08T09:14:06;598.40;;;575.05;;
7239;SDS011;3661;53.288;10.458;2024-03-08T09:16:40;677.55;;;650.42;;
7239;SDS011;3661;53.288;10.458;2024-03-08T09:19:12;603.57;;;580.07;;
7239;SDS011;3661;53.288;10.458;2024-03-08T09:21:45;603.37;;;580.33;;
7239;SDS011;3661;53.288;10.458;2024-03-08T09:24:17;658.67;;;632.33;;
7239;SDS011;3661;53.288;10.458;2024-03-08T09:26:49;632.92;;;607.88;;
7239;SDS011;3661;53.288;10.458;2024-03-08T09:29:22;648.30;;;622.40;;
7239;SDS011;3661;53.288;10.458;2024-03-08T09:31:55;643.88;;;618.95;;
7239;SDS011;3661;53.288;10.458;2024-03-08T09:34:27;665.87;;;639.67;;
7239;SDS011;3661;53.288;10.458;2024-03-08T09:37:00;671.70;;;646.30;;
7239;SDS011;3661;53.288;10.458;2024-03-08T09:39:35;634.27;;;610.47;;
7239;SDS011;3661;53.288;10.458;2024-03-08T09:42:08;667.03;;;642.40;;
7239;SDS011;3661;53.288;10.458;2024-03-08T09:44:43;676.57;;;650.40;;
7239;SDS011;3661;53.288;10.458;2024-03-08T09:47:18;719.87;;;692.00;;
7239;SDS011;3661;53.288;10.458;2024-03-08T09:49:53;732.25;;;704.30;;
7239;SDS011;3661;53.288;10.458;2024-03-08T09:52:25;738.33;;;710.27;;
7239;SDS011;3661;53.288;10.458;2024-03-08T09:55:00;732.22;;;704.80;;
7239;SDS011;3661;53.288;10.458;2024-03-08T09:57:33;765.70;;;736.43;;
7239;SDS011;3661;53.288;10.458;2024-03-08T10:00:07;774.13;;;744.70;;
7239;SDS011;3661;53.288;10.458;2024-03-08T10:02:50;747.67;;;720.17;;
7239;SDS011;3661;53.288;10.458;2024-03-08T10:05:23;753.42;;;725.53;;
7239;SDS011;3661;53.288;10.458;2024-03-08T10:07:56;748.25;;;720.83;;
7239;SDS011;3661;53.288;10.458;2024-03-08T10:10:29;767.67;;;739.63;;
7239;SDS011;3661;53.288;10.458;2024-03-08T10:13:01;761.22;;;733.35;;
7239;SDS011;3661;53.288;10.458;2024-03-08T10:15:34;782.33;;;753.83;;
7239;SDS011;3661;53.288;10.458;2024-03-08T10:18:08;860.40;;;828.25;;
7239;SDS011;3661;53.288;10.458;2024-03-08T10:20:40;849.22;;;817.17;;
7239;SDS011;3661;53.288;10.458;2024-03-08T10:23:13;847.83;;;816.05;;
7239;SDS011;3661;53.288;10.458;2024-03-08T10:25:45;831.45;;;800.75;;
7239;SDS011;3661;53.288;10.458;2024-03-08T10:28:17;878.75;;;845.97;;
7239;SDS011;3661;53.288;10.458;2024-03-08T10:30:49;845.87;;;815.33;;
7239;SDS011;3661;53.288;10.458;2024-03-08T10:33:23;889.72;;;856.47;;
7239;SDS011;3661;53.288;10.458;2024-03-08T10:35:56;909.67;;;876.35;;
7239;SDS011;3661;53.288;10.458;2024-03-08T10:38:28;853.10;;;822.63;;
7239;SDS011;3661;53.288;10.458;2024-03-08T10:41:04;886.35;;;854.28;;
7239;SDS011;3661;53.288;10.458;2024-03-08T10:43:42;889.45;;;857.08;;
7239;SDS011;3661;53.288;10.458;2024-03-08T10:46:30;917.50;;;884.03;;
7239;SDS011;3661;53.288;10.458;2024-03-08T10:49:16;885.88;;;854.03;;
7239;SDS011;3661;53.288;10.458;2024-03-08T10:51:49;904.00;;;871.92;;
7239;SDS011;3661;53.288;10.458;2024-03-08T10:54:22;908.40;;;876.93;;
7239;SDS011;3661;53.288;10.458;2024-03-08T10:56:55;965.20;;;931.25;;
7239;SDS011;3661;53.288;10.458;2024-03-08T10:59:27;908.33;;;876.28;;
7239;SDS011;3661;53.288;10.458;2024-03-08T11:02:02;905.42;;;874.10;;
7239;SDS011;3661;53.288;10.458;2024-03-08T11:04:38;1027.90;;;993.28;;
7239;SDS011;3661;53.288;10.458;2024-03-08T11:07:10;1035.65;;;997.13;;
7239;SDS011;3661;53.288;10.458;2024-03-08T11:09:47;1013.47;;;979.33;;
7239;SDS011;3661;53.288;10.458;2024-03-08T11:12:23;998.72;;;965.17;;
7239;SDS011;3661;53.288;10.458;2024-03-08T11:14:59;1054.45;;;999.90;;
7239;SDS011;3661;53.288;10.458;2024-03-08T11:17:40;1051.40;;;999.90;;
7239;SDS011;3661;53.288;10.458;2024-03-08T11:20:18;1060.90;;;999.90;;
7239;SDS011;3661;53.288;10.458;2024-03-08T11:22:52;1012.53;;;978.70;;
7239;SDS011;3661;53.288;10.458;2024-03-08T11:25:34;992.05;;;959.22;;
7239;SDS011;3661;53.288;10.458;2024-03-08T11:28:13;913.77;;;883.47;;
7239;SDS011;3661;53.288;10.458;2024-03-08T11:33:53;974.03;;;942.17;;
7239;SDS011;3661;53.288;10.458;2024-03-08T11:36:27;1045.88;;;999.90;;
7239;SDS011;3661;53.288;10.458;2024-03-08T11:39:01;1139.10;;;999.90;;
7239;SDS011;3661;53.288;10.458;2024-03-08T11:41:40;1120.55;;;999.90;;
7239;SDS011;3661;53.288;10.458;2024-03-08T11:44:12;1091.53;;;999.90;;
7239;SDS011;3661;53.288;10.458;2024-03-08T11:46:46;1104.97;;;999.90;;
7239;SDS011;3661;53.288;10.458;2024-03-08T11:49:18;1133.53;;;999.90;;
7239;SDS011;3661;53.288;10.458;2024-03-08T11:51:52;1059.95;;;999.90;;
7239;SDS011;3661;53.288;10.458;2024-03-08T11:54:24;1110.10;;;999.90;;
7239;SDS011;3661;53.288;10.458;2024-03-08T11:56:56;1072.80;;;999.90;;
7239;SDS011;3661;53.288;10.458;2024-03-08T11:59:30;1206.75;;;999.90;;
7239;SDS011;3661;53.288;10.458;2024-03-08T12:02:03;1181.97;;;999.90;;
7239;SDS011;3661;53.288;10.458;2024-03-08T12:04:36;1242.00;;;999.90;;
7239;SDS011;3661;53.288;10.458;2024-03-08T12:07:10;1247.07;;;999.90;;
7239;SDS011;3661;53.288;10.458;2024-03-08T12:09:44;1224.20;;;999.90;;
7239;SDS011;3661;53.288;10.458;2024-03-08T12:12:49;1247.70;;;999.90;;
7239;SDS011;3661;53.288;10.458;2024-03-08T12:18:50;1199.85;;;999.90;;
7239;SDS011;3661;53.288;10.458;2024-03-08T12:25:04;1257.97;;;999.90;;
7239;SDS011;3661;53.288;10.458;2024-03-08T12:31:08;1297.50;;;999.90;;
7239;SDS011;3661;53.288;10.458;2024-03-08T12:37:07;1305.40;;;999.90;;
7239;SDS011;3661;53.288;10.458;2024-03-08T12:43:09;1303.53;;;999.90;;
7239;SDS011;3661;53.288;10.458;2024-03-08T12:45:44;1206.50;;;999.90;;
7239;SDS011;3661;53.288;10.458;2024-03-08T12:48:17;1236.97;;;999.90;;
7239;SDS011;3661;53.288;10.458;2024-03-08T12:50:50;1275.68;;;999.90;;
7239;SDS011;3661;53.288;10.458;2024-03-08T12:53:23;1249.07;;;999.90;;
7239;SDS011;3661;53.288;10.458;2024-03-08T12:55:58;1279.03;;;999.90;;
7239;SDS011;3661;53.288;10.458;2024-03-08T12:58:32;1284.97;;;999.90;;
7239;SDS011;3661;53.288;10.458;2024-03-08T13:01:04;1216.35;;;999.90;;
7239;SDS011;3661;53.288;10.458;2024-03-08T13:03:38;1257.50;;;999.90;;
7239;SDS011;3661;53.288;10.458;2024-03-08T13:06:10;1201.95;;;999.90;;
7239;SDS011;3661;53.288;10.458;2024-03-08T13:08:43;1198.50;;;999.90;;
7239;SDS011;3661;53.288;10.458;2024-03-08T13:11:15;994.25;;;963.25;;
7239;SDS011;3661;53.288;10.458;2024-03-08T13:13:48;1226.20;;;999.90;;
7239;SDS011;3661;53.288;10.458;2024-03-08T13:16:20;1190.32;;;999.90;;
7239;SDS011;3661;53.288;10.458;2024-03-08T13:18:52;1331.28;;;999.90;;
7239;SDS011;3661;53.288;10.458;2024-03-08T13:21:25;1311.07;;;999.90;;
7239;SDS011;3661;53.288;10.458;2024-03-08T13:24:00;1320.63;;;999.90;;
7239;SDS011;3661;53.288;10.458;2024-03-08T13:26:35;1272.72;;;999.90;;
7239;SDS011;3661;53.288;10.458;2024-03-08T13:29:09;1188.72;;;999.90;;
7239;SDS011;3661;53.288;10.458;2024-03-08T13:31:42;1311.82;;;999.90;;
7239;SDS011;3661;53.288;10.458;2024-03-08T13:34:14;1243.38;;;999.90;;
7239;SDS011;3661;53.288;10.458;2024-03-08T13:36:46;1208.65;;;999.90;;
7239;SDS011;3661;53.288;10.458;2024-03-08T13:39:21;1225.22;;;999.90;;
7239;SDS011;3661;53.288;10.458;2024-03-08T13:41:55;1310.55;;;999.90;;
7239;SDS011;3661;53.288;10.458;2024-03-08T13:44:29;1332.17;;;999.90;;
7239;SDS011;3661;53.288;10.458;2024-03-08T13:47:01;1267.35;;;999.90;;
7239;SDS011;3661;53.288;10.458;2024-03-08T13:49:34;1248.32;;;999.90;;
7239;SDS011;3661;53.288;10.458;2024-03-08T13:52:06;1311.65;;;999.90;;
7239;SDS011;3661;53.288;10.458;2024-03-08T13:54:39;1306.80;;;999.90;;
7239;SDS011;3661;53.288;10.458;2024-03-08T13:57:12;1294.10;;;999.90;;
7239;SDS011;3661;53.288;10.458;2024-03-08T13:59:46;1305.82;;;999.90;;
7239;SDS011;3661;53.288;10.458;2024-03-08T14:02:19;1348.82;;;999.90;;
7239;SDS011;3661;53.288;10.458;2024-03-08T14:04:55;1137.78;;;999.90;;
7239;SDS011;3661;53.288;10.458;2024-03-08T14:07:27;1308.68;;;999.90;;
7239;SDS011;3661;53.288;10.458;2024-03-08T14:09:59;1223.15;;;999.90;;
7239;SDS011;3661;53.288;10.458;2024-03-08T14:12:32;1257.20;;;999.90;;
7239;SDS011;3661;53.288;10.458;2024-03-08T14:15:06;1282.68;;;999.90;;
7239;SDS011;3661;53.288;10.458;2024-03-08T14:17:41;1337.65;;;999.90;;
7239;SDS011;3661;53.288;10.458;2024-03-08T14:20:13;1297.03;;;999.90;;
7239;SDS011;3661;53.288;10.458;2024-03-08T14:22:48;1282.28;;;999.90;;
7239;SDS011;3661;53.288;10.458;2024-03-08T14:25:21;1303.07;;;999.90;;
7239;SDS011;3661;53.288;10.458;2024-03-08T14:27:53;1275.45;;;999.90;;
7239;SDS011;3661;53.288;10.458;2024-03-08T14:30:29;1350.73;;;999.90;;
7239;SDS011;3661;53.288;10.458;2024-03-08T14:33:07;1310.22;;;999.90;;
7239;SDS011;3661;53.288;10.458;2024-03-08T14:35:40;1330.80;;;999.90;;
7239;SDS011;3661;53.288;10.458;2024-03-08T14:38:13;1364.22;;;999.90;;
7239;SDS011;3661;53.288;10.458;2024-03-08T14:40:48;1299.63;;;999.90;;
7239;SDS011;3661;53.288;10.458;2024-03-08T14:43:20;1370.97;;;999.90;;
7239;SDS011;3661;53.288;10.458;2024-03-08T14:45:54;1333.63;;;999.90;;
7239;SDS011;3661;53.288;10.458;2024-03-08T14:48:26;1342.55;;;999.90;;
7239;SDS011;3661;53.288;10.458;2024-03-08T14:50:58;1287.93;;;999.90;;
7239;SDS011;3661;53.288;10.458;2024-03-08T14:53:30;1306.30;;;999.90;;
7239;SDS011;3661;53.288;10.458;2024-03-08T14:56:02;1324.63;;;999.90;;
7239;SDS011;3661;53.288;10.458;2024-03-08T14:58:35;1283.07;;;999.90;;
7239;SDS011;3661;53.288;10.458;2024-03-08T15:01:09;1251.37;;;999.90;;
7239;SDS011;3661;53.288;10.458;2024-03-08T15:03:44;1273.60;;;999.90;;